Time;durP1;ratioP1;P1;durP2;ratioP2;P2;SDS_P1;SDS_P2;PMS_P1;PMS_P2;Temp;Humidity;BMP_temperature;BMP_pressure;BME280_temperature;BME280_humidity;BME280_pressure;Samples;Min_cycle;Max_cycle;Signal;HPM_P1;HPM_P2
2023/10/30 00:02:24;;;;;;;9.70;4.30;;;;;;;11.18;100.00;101248.77;108767;1257;59992;-50
2023/10/30 00:04:51;;;;;;;10.20;5.00;;;;;;;11.18;100.00;101245.73;108635;1256;73848;-50
2023/10/30 00:07:19;;;;;;;7.60;3.80;;;;;;;11.15;100.00;101243.64;104464;1257;65916;-50
2023/10/30 00:09:46;;;;;;;10.70;4.80;;;;;;;11.13;100.00;101242.99;104647;1257;71545;-50
2023/10/30 00:12:14;;;;;;;6.40;4.00;;;;;;;11.12;100.00;101243.75;108704;1257;61728;-51
2023/10/30 00:14:42;;;;;;;4.00;2.90;;;;;;;11.10;100.00;101240.20;106481;1261;58771;-49
2023/10/30 00:17:09;;;;;;;9.00;3.80;;;;;;;11.08;100.00;101239.88;104600;1262;74050;-51
2023/10/30 00:19:36;;;;;;;7.10;3.00;;;;;;;11.06;100.00;101237.77;104539;1263;66235;-51
2023/10/30 00:22:04;;;;;;;8.50;4.20;;;;;;;11.06;100.00;101231.52;104670;1258;71429;-50
2023/10/30 00:24:32;;;;;;;9.50;3.90;;;;;;;11.04;100.00;101234.96;104418;1263;60558;-49
2023/10/30 00:27:00;;;;;;;6.30;4.00;;;;;;;11.04;100.00;101231.38;105881;1261;59244;-49
2023/10/30 00:29:27;;;;;;;7.60;3.30;;;;;;;11.03;100.00;101227.63;104461;1262;74007;-50
2023/10/30 00:31:55;;;;;;;7.30;3.70;;;;;;;11.02;100.00;101225.50;104594;1258;67348;-50
2023/10/30 00:34:22;;;;;;;9.80;4.10;;;;;;;10.99;100.00;101220.89;104508;1258;72755;-50
2023/10/30 00:36:49;;;;;;;6.70;3.80;;;;;;;10.96;100.00;101219.37;104590;1257;60696;-50
2023/10/30 00:39:17;;;;;;;7.30;4.60;;;;;;;10.93;100.00;101216.77;104386;1260;60639;-49
2023/10/30 00:41:45;;;;;;;8.50;3.70;;;;;;;10.90;100.00;101213.05;104677;1260;74438;-49
2023/10/30 00:44:12;;;;;;;7.80;3.50;;;;;;;10.89;100.00;101205.01;104703;1260;66925;-48
2023/10/30 00:46:39;;;;;;;7.10;3.40;;;;;;;10.88;100.00;101203.80;104308;1258;72448;-50
2023/10/30 00:49:07;;;;;;;7.10;3.50;;;;;;;10.87;100.00;101200.23;104585;1260;60539;-50
2023/10/30 00:51:35;;;;;;;7.20;3.70;;;;;;;10.86;100.00;101196.85;104651;1263;60487;-50
2023/10/30 00:54:03;;;;;;;7.60;4.40;;;;;;;10.85;100.00;101197.05;104394;1260;74336;-50
2023/10/30 00:56:30;;;;;;;8.80;4.20;;;;;;;10.84;100.00;101196.89;104443;1262;66637;-51
2023/10/30 00:58:57;;;;;;;8.80;3.80;;;;;;;10.83;100.00;101196.55;104561;1257;72481;-50
2023/10/30 01:01:25;;;;;;;7.60;4.20;;;;;;;10.82;100.00;101195.51;104555;1258;60623;-51
2023/10/30 01:03:53;;;;;;;8.30;4.10;;;;;;;10.79;100.00;101192.88;104566;1257;151445;-48
2023/10/30 01:07:47;;;;;;;5.90;3.20;;;;;;;10.78;100.00;101292.73;101761;1290;603137;-50
2023/10/30 01:10:14;;;;;;;6.10;3.70;;;;;;;10.76;100.00;101344.88;104329;1271;61673;-49
2023/10/30 01:12:42;;;;;;;5.60;3.50;;;;;;;10.75;100.00;101312.73;104195;1258;59008;-51
2023/10/30 01:15:09;;;;;;;6.20;3.20;;;;;;;10.75;100.00;101293.36;104309;1267;71019;-48
2023/10/30 01:17:37;;;;;;;7.20;3.90;;;;;;;10.76;100.00;101280.96;104395;1262;67575;-50
2023/10/30 01:20:05;;;;;;;5.00;3.10;;;;;;;10.75;100.00;101274.68;104578;1263;72110;-51
2023/10/30 01:22:33;;;;;;;10.80;4.30;;;;;;;10.75;100.00;101262.48;104338;1263;138139;-49
2023/10/30 01:25:00;;;;;;;6.90;3.50;;;;;;;10.74;100.00;101254.06;104575;1257;60118;-51
2023/10/30 01:27:27;;;;;;;6.10;3.50;;;;;;;10.74;100.00;101248.86;104567;1260;70919;-48
2023/10/30 01:29:55;;;;;;;8.90;3.60;;;;;;;10.72;100.00;101235.82;104510;1257;66763;-48
2023/10/30 01:32:22;;;;;;;6.60;2.60;;;;;;;10.71;100.00;101226.88;104670;1260;72890;-51
2023/10/30 01:34:49;;;;;;;5.40;2.80;;;;;;;10.70;100.00;101219.54;104596;1261;61710;-47
2023/10/30 01:37:20;;;;;;;7.20;3.70;;;;;;;10.69;100.00;101212.73;104669;1261;59784;-49
2023/10/30 01:39:48;;;;;;;8.50;3.80;;;;;;;10.68;100.00;101211.14;105399;1257;73111;-48
2023/10/30 01:42:16;;;;;;;6.30;3.30;;;;;;;10.68;100.00;101206.48;104660;1262;66802;-51
2023/10/30 01:44:57;;;;;;;4.80;3.10;;;;;;;10.68;100.00;101206.48;104527;1262;71424;-49
2023/10/30 01:47:25;;;;;;;6.10;3.00;;;;;;;10.68;100.00;101212.76;104443;1266;59785;-49
2023/10/30 01:49:52;;;;;;;4.50;3.10;;;;;;;10.68;100.00;101200.38;104590;1263;60064;-49
2023/10/30 01:52:20;;;;;;;5.10;2.30;;;;;;;10.67;100.00;101193.92;104450;1263;73099;-52
2023/10/30 01:54:48;;;;;;;8.50;3.70;;;;;;;10.66;100.00;101187.84;104436;1263;65696;-49
2023/10/30 01:57:21;;;;;;;4.90;2.10;;;;;;;10.65;100.00;101183.75;104520;1257;71457;-50
2023/10/30 01:59:51;;;;;;;5.10;2.90;;;;;;;10.63;100.00;101183.26;106996;1262;60454;-48
2023/10/30 02:02:19;;;;;;;5.40;2.90;;;;;;;10.61;100.00;101178.27;106795;1258;60558;-49
2023/10/30 02:04:47;;;;;;;3.60;2.60;;;;;;;10.60;100.00;101174.72;104498;1261;73136;-50
2023/10/30 02:07:15;;;;;;;6.50;3.50;;;;;;;10.60;100.00;101169.70;104494;1261;65595;-50
2023/10/30 02:09:45;;;;;;;7.30;3.20;;;;;;;10.60;100.00;101170.95;104382;1263;71511;-49
2023/10/30 02:12:13;;;;;;;6.70;2.60;;;;;;;10.60;100.00;101161.08;104466;1263;60536;-50
2023/10/30 02:14:40;;;;;;;4.50;2.90;;;;;;;10.60;100.00;101156.77;104310;1257;59656;-51
2023/10/30 02:17:08;;;;;;;4.40;2.80;;;;;;;10.58;100.00;101151.26;104464;1261;73257;-49
2023/10/30 02:19:35;;;;;;;7.70;4.30;;;;;;;10.57;100.00;101146.44;104548;1257;65856;-49
2023/10/30 02:22:02;;;;;;;7.20;3.30;;;;;;;10.55;100.00;101148.08;104380;1258;72720;-51
2023/10/30 02:24:30;;;;;;;4.10;2.90;;;;;;;10.54;100.00;101150.11;104501;1258;60508;-50
2023/10/30 02:26:57;;;;;;;5.30;2.80;;;;;;;10.52;100.00;101150.52;104332;1258;59953;-51
2023/10/30 02:29:25;;;;;;;4.10;2.70;;;;;;;10.49;100.00;101147.54;108607;1257;73096;-52
2023/10/30 02:31:53;;;;;;;6.50;2.90;;;;;;;10.47;100.00;101146.32;108655;1261;67377;-53
2023/10/30 02:34:21;;;;;;;7.40;2.60;;;;;;;10.47;100.00;101149.58;108607;1256;73616;-52
2023/10/30 02:36:48;;;;;;;4.30;2.80;;;;;;;10.46;100.00;101144.92;108642;1257;60507;-51
2023/10/30 02:39:15;;;;;;;3.10;1.70;;;;;;;10.47;100.00;101138.25;108659;1256;60111;-50
2023/10/30 02:41:43;;;;;;;6.00;3.00;;;;;;;10.47;100.00;101143.10;108735;1256;73126;-50
2023/10/30 02:44:11;;;;;;;3.70;3.00;;;;;;;10.46;100.00;101140.23;108637;1257;67153;-48
2023/10/30 02:46:39;;;;;;;4.60;2.90;;;;;;;10.47;100.00;101143.98;108680;1257;71492;-50
2023/10/30 02:49:06;;;;;;;4.70;2.90;;;;;;;10.46;100.00;101144.02;108666;1257;60543;-50
2023/10/30 02:51:33;;;;;;;4.10;1.50;;;;;;;10.46;100.00;101145.67;108807;1256;58195;-49
2023/10/30 02:54:01;;;;;;;4.70;2.40;;;;;;;10.44;100.00;101140.14;108582;1256;76111;-51
2023/10/30 02:56:29;;;;;;;9.80;2.60;;;;;;;10.43;100.00;101131.55;105728;1263;66826;-51
2023/10/30 02:58:57;;;;;;;5.00;3.00;;;;;;;10.42;100.00;101130.65;104470;1263;72739;-48
2023/10/30 03:01:26;;;;;;;5.90;2.20;;;;;;;10.42;100.00;101125.48;104402;1256;59783;-50
2023/10/30 03:03:53;;;;;;;4.30;2.50;;;;;;;10.42;100.00;101119.36;108686;1257;59225;-51
2023/10/30 03:06:21;;;;;;;6.70;2.50;;;;;;;10.42;100.00;101114.89;108666;1256;73695;-52
2023/10/30 03:08:49;;;;;;;5.90;3.70;;;;;;;10.42;100.00;101115.98;105486;1257;66963;-50
2023/10/30 03:11:16;;;;;;;3.90;2.20;;;;;;;10.41;100.00;101122.80;107013;1260;71451;-51
2023/10/30 03:13:44;;;;;;;4.80;2.20;;;;;;;10.40;100.00;101122.29;104509;1262;60250;-50
2023/10/30 03:16:11;;;;;;;4.00;2.50;;;;;;;10.38;100.00;101116.63;108544;1256;60422;-51
2023/10/30 03:18:39;;;;;;;4.40;1.90;;;;;;;10.37;100.00;101117.02;108755;1257;73493;-52
2023/10/30 03:21:06;;;;;;;5.20;2.10;;;;;;;10.36;100.00;101115.42;108764;1256;67410;-52
2023/10/30 03:23:34;;;;;;;5.30;2.40;;;;;;;10.35;100.00;101118.48;107020;1257;70903;-52
2023/10/30 03:26:01;;;;;;;6.30;2.30;;;;;;;10.36;100.00;101115.95;104427;1262;61713;-51
2023/10/30 03:28:29;;;;;;;3.60;2.20;;;;;;;10.37;100.00;101107.48;104392;1257;60719;-51
2023/10/30 03:31:03;;;;;;;5.40;3.00;;;;;;;10.39;100.00;101112.45;104606;1255;73537;-51
2023/10/30 03:33:31;;;;;;;4.60;2.20;;;;;;;10.40;100.00;101116.73;106058;1264;67501;-51
2023/10/30 03:35:58;;;;;;;5.90;2.80;;;;;;;10.40;100.00;101106.67;105504;1258;73762;-51
2023/10/30 03:38:26;;;;;;;3.60;2.10;;;;;;;10.41;100.00;101101.81;104515;1261;59668;-51
2023/10/30 03:40:53;;;;;;;5.70;2.60;;;;;;;10.41;100.00;101101.44;104393;1257;61038;-50
2023/10/30 03:43:20;;;;;;;4.20;3.00;;;;;;;10.42;100.00;101092.99;104657;1263;73029;-51
2023/10/30 03:45:48;;;;;;;3.10;1.90;;;;;;;10.43;100.00;101094.04;104581;1257;65067;-51
2023/10/30 03:48:15;;;;;;;4.50;1.50;;;;;;;10.44;100.00;101093.48;105170;1264;73417;-50
2023/10/30 03:50:43;;;;;;;3.60;1.50;;;;;;;10.44;100.00;101096.52;104546;1258;60464;-49
2023/10/30 03:53:11;;;;;;;5.90;2.20;;;;;;;10.46;100.00;101099.15;104708;1257;59991;-50
2023/10/30 03:55:38;;;;;;;5.50;1.80;;;;;;;10.46;100.00;101097.71;104643;1263;73542;-50
2023/10/30 03:58:05;;;;;;;3.20;1.30;;;;;;;10.49;100.00;101105.54;104540;1262;65601;-49
2023/10/30 04:00:33;;;;;;;6.00;2.10;;;;;;;10.51;100.00;101100.10;104500;1257;71456;-50
2023/10/30 04:03:00;;;;;;;4.70;1.80;;;;;;;10.54;100.00;101107.38;104583;1260;59755;-50
2023/10/30 04:05:27;;;;;;;2.80;1.50;;;;;;;10.56;100.00;101104.61;104545;1258;60087;-51
2023/10/30 04:07:55;;;;;;;4.50;2.10;;;;;;;10.58;100.00;101103.15;104559;1257;73299;-51
2023/10/30 04:10:22;;;;;;;4.90;1.90;;;;;;;10.59;100.00;101101.14;104478;1262;65954;-48
2023/10/30 04:12:49;;;;;;;4.90;2.00;;;;;;;10.59;100.00;101101.49;104505;1258;71417;-52
2023/10/30 04:15:18;;;;;;;9.70;1.40;;;;;;;10.60;100.00;101100.05;104421;1257;61733;-51
2023/10/30 04:17:45;;;;;;;3.40;1.70;;;;;;;10.61;100.00;101098.95;106549;1257;60487;-51
2023/10/30 04:20:13;;;;;;;8.10;1.60;;;;;;;10.61;100.00;101100.55;104520;1263;73219;-52
2023/10/30 04:22:40;;;;;;;4.50;1.90;;;;;;;10.63;100.00;101099.27;104494;1262;67562;-52
2023/10/30 04:25:08;;;;;;;5.50;1.50;;;;;;;10.64;100.00;101099.02;104536;1260;71332;-51
2023/10/30 04:27:35;;;;;;;5.40;1.90;;;;;;;10.66;100.00;101101.50;104480;1257;60555;-49
2023/10/30 04:30:03;;;;;;;5.60;3.40;;;;;;;10.67;100.00;101102.73;104450;1263;60038;-52
2023/10/30 04:32:30;;;;;;;8.20;6.10;;;;;;;10.68;100.00;101100.19;104400;1256;71403;-50
2023/10/30 04:34:57;;;;;;;7.90;7.10;;;;;;;10.69;100.00;101098.73;104355;1257;67474;-50
2023/10/30 04:37:25;;;;;;;6.50;5.90;;;;;;;10.71;100.00;101094.02;104296;1262;72751;-51
2023/10/30 04:39:52;;;;;;;5.00;3.70;;;;;;;10.70;100.00;101097.98;104416;1263;60388;-50
2023/10/30 04:42:20;;;;;;;3.40;2.20;;;;;;;10.70;100.00;101095.30;108558;1257;58846;-51
2023/10/30 04:44:48;;;;;;;3.30;2.10;;;;;;;10.70;100.00;101094.22;108664;1257;73112;-51
2023/10/30 04:47:15;;;;;;;2.80;1.50;;;;;;;10.69;100.00;101089.56;108633;1257;65642;-51
2023/10/30 04:49:45;;;;;;;4.20;2.40;;;;;;;10.70;100.00;101090.11;108568;1260;73221;-51
2023/10/30 04:52:13;;;;;;;2.40;2.00;;;;;;;10.70;100.00;101087.41;108685;1256;58995;-52
2023/10/30 04:54:40;;;;;;;4.20;2.10;;;;;;;10.70;100.00;101084.70;108679;1257;60806;-51
2023/10/30 04:57:08;;;;;;;4.20;2.60;;;;;;;10.71;100.00;101087.19;108718;1257;71829;-51
2023/10/30 04:59:35;;;;;;;5.70;2.50;;;;;;;10.71;100.00;101087.19;108589;1257;65644;-51
2023/10/30 05:02:03;;;;;;;5.00;2.20;;;;;;;10.72;100.00;101083.22;108686;1257;71336;-51
2023/10/30 05:04:30;;;;;;;5.30;1.80;;;;;;;10.71;100.00;101087.90;107323;1256;63386;-51
2023/10/30 05:06:58;;;;;;;6.70;1.90;;;;;;;10.71;100.00;101090.06;104430;1254;60603;-51
2023/10/30 05:09:25;;;;;;;2.90;1.30;;;;;;;10.72;100.00;101088.61;104711;1254;71924;-52
2023/10/30 05:11:54;;;;;;;3.50;1.60;;;;;;;10.72;100.00;101088.40;104528;1259;67343;-51
2023/10/30 05:14:22;;;;;;;3.70;2.20;;;;;;;10.74;100.00;101090.31;108931;1254;71250;-52
2023/10/30 05:16:49;;;;;;;4.60;1.80;;;;;;;10.75;100.00;101088.50;108886;1254;60175;-52
2023/10/30 05:19:17;;;;;;;2.70;2.00;;;;;;;10.77;100.00;101088.25;108887;1256;61068;-52
2023/10/30 05:21:44;;;;;;;3.90;1.80;;;;;;;10.80;100.00;101087.27;108902;1254;74489;-52
2023/10/30 05:24:11;;;;;;;4.60;2.30;;;;;;;10.82;100.00;101088.83;109010;1254;65985;-53
2023/10/30 05:26:39;;;;;;;5.10;2.40;;;;;;;10.84;100.00;101088.95;108904;1253;70617;-50
2023/10/30 05:29:06;;;;;;;3.70;1.90;;;;;;;10.85;100.00;101090.01;108799;1254;60457;-50
2023/10/30 05:31:33;;;;;;;4.90;1.90;;;;;;;10.86;100.00;101088.92;108889;1254;61174;-51
2023/10/30 05:34:01;;;;;;;3.10;1.60;;;;;;;10.87;100.00;101096.07;108772;1253;74768;-50
2023/10/30 05:36:29;;;;;;;3.10;1.50;;;;;;;10.89;100.00;101094.38;108789;1254;67413;-50
2023/10/30 05:38:56;;;;;;;3.10;2.20;;;;;;;10.91;100.00;101099.89;109125;1253;73246;-50
2023/10/30 05:41:23;;;;;;;4.60;1.90;;;;;;;10.93;100.00;101103.96;108932;1254;59490;-51
2023/10/30 05:43:51;;;;;;;6.70;2.20;;;;;;;10.96;100.00;101105.16;109081;1253;60521;-51
2023/10/30 05:46:19;;;;;;;2.70;1.70;;;;;;;10.99;100.00;101113.13;109085;1253;73756;-50
2023/10/30 05:48:46;;;;;;;4.90;1.70;;;;;;;11.01;100.00;101113.27;109152;1253;68051;-51
2023/10/30 05:51:13;;;;;;;3.30;1.30;;;;;;;11.04;100.00;101119.85;109020;1253;71156;-50
2023/10/30 05:53:41;;;;;;;3.80;1.80;;;;;;;11.05;100.00;101115.30;108899;1257;58950;-51
2023/10/30 05:56:08;;;;;;;2.60;1.10;;;;;;;11.07;100.00;101116.67;106071;1253;59221;-50
2023/10/30 05:58:36;;;;;;;2.80;1.40;;;;;;;11.10;100.00;101118.58;104818;1254;73897;-51
2023/10/30 06:01:04;;;;;;;3.50;1.80;;;;;;;11.12;100.00;101117.45;104843;1258;65670;-49
2023/10/30 06:03:31;;;;;;;3.40;1.30;;;;;;;11.16;100.00;101132.06;108871;1253;72701;-52
2023/10/30 06:05:59;;;;;;;6.40;1.40;;;;;;;11.21;100.00;101139.09;106345;1253;60564;-50
2023/10/30 06:08:26;;;;;;;5.20;1.30;;;;;;;11.28;100.00;101144.48;104893;1254;60501;-51
2023/10/30 06:10:53;;;;;;;5.00;2.20;;;;;;;11.33;100.00;101150.41;104769;1257;72575;-51
2023/10/30 06:13:21;;;;;;;5.30;1.60;;;;;;;11.38;100.00;101158.73;104728;1254;68144;-50
2023/10/30 06:15:49;;;;;;;4.20;1.50;;;;;;;11.44;100.00;101160.71;104831;1257;72452;-50
2023/10/30 06:18:17;;;;;;;1.70;1.20;;;;;;;11.49;100.00;101166.84;105426;1260;60685;-50
2023/10/30 06:20:44;;;;;;;1.90;1.10;;;;;;;11.55;100.00;101164.34;104901;1256;60454;-48
2023/10/30 06:23:12;;;;;;;2.80;1.40;;;;;;;11.60;100.00;101174.77;104695;1259;73803;-50
2023/10/30 06:25:40;;;;;;;3.60;1.10;;;;;;;11.66;100.00;101179.27;104967;1256;65615;-49
2023/10/30 06:28:10;;;;;;;3.00;1.20;;;;;;;11.73;100.00;101181.23;104738;1258;71417;-50
2023/10/30 06:30:38;;;;;;;6.30;1.30;;;;;;;11.81;100.00;101186.59;104753;1253;60456;-51
2023/10/30 06:33:05;;;;;;;3.90;1.30;;;;;;;11.88;100.00;101185.11;104798;1254;60554;-50
2023/10/30 06:35:33;;;;;;;3.70;1.30;;;;;;;11.96;100.00;101187.73;104642;1254;72590;-49
2023/10/30 06:38:00;;;;;;;4.40;1.70;;;;;;;12.03;100.00;101197.39;104637;1257;68050;-50
2023/10/30 06:40:28;;;;;;;2.20;1.30;;;;;;;12.12;100.00;101203.80;104712;1254;71520;-50
2023/10/30 06:42:56;;;;;;;3.30;1.20;;;;;;;12.20;100.00;101217.73;106254;1254;59342;-49
2023/10/30 06:45:23;;;;;;;4.30;1.20;;;;;;;12.28;100.00;101229.17;104784;1259;60450;-50
2023/10/30 06:47:50;;;;;;;3.50;1.30;;;;;;;12.35;100.00;101231.29;104789;1254;72647;-49
2023/10/30 06:50:18;;;;;;;2.80;1.10;;;;;;;12.44;100.00;101231.01;104812;1258;66812;-50
2023/10/30 06:52:45;;;;;;;3.90;1.40;;;;;;;12.53;100.00;101231.05;104952;1256;71384;-50
2023/10/30 06:55:12;;;;;;;7.70;1.60;;;;;;;12.63;100.00;101239.73;104611;1257;60573;-49
2023/10/30 06:57:40;;;;;;;3.00;1.00;;;;;;;12.72;100.00;101254.39;104557;1254;62350;-49
2023/10/30 07:00:08;;;;;;;3.80;1.40;;;;;;;12.82;100.00;101269.18;104825;1254;72717;-50
2023/10/30 07:02:36;;;;;;;3.00;1.80;;;;;;;12.92;100.00;101281.80;106660;1254;66657;-51
2023/10/30 07:05:03;;;;;;;2.50;1.40;;;;;;;13.03;100.00;101292.99;104656;1254;71458;-49
2023/10/30 07:07:30;;;;;;;3.30;1.20;;;;;;;13.13;100.00;101296.42;104643;1254;60559;-49
2023/10/30 07:09:58;;;;;;;3.10;1.50;;;;;;;13.23;100.00;101304.23;104639;1254;63207;-49
2023/10/30 07:12:25;;;;;;;2.50;1.50;;;;;;;13.31;100.00;101315.30;104855;1254;73889;-50
2023/10/30 07:14:53;;;;;;;3.30;1.50;;;;;;;13.37;100.00;101321.21;104859;1254;64938;-50
2023/10/30 07:17:23;;;;;;;3.80;1.70;;;;;;;13.42;100.00;101334.94;105386;1257;72590;-52
2023/10/30 07:19:50;;;;;;;3.50;1.30;;;;;;;13.45;100.00;101334.98;104862;1259;60638;-49
2023/10/30 07:22:17;;;;;;;2.70;1.90;;;;;;;13.48;100.00;101339.59;104760;1254;60690;-49
2023/10/30 07:24:45;;;;;;;3.30;1.60;;;;;;;13.48;100.00;101347.86;104887;1257;73866;-48
2023/10/30 07:27:13;;;;;;;2.30;1.40;;;;;;;13.48;100.00;101351.84;104844;1256;68103;-49
2023/10/30 07:29:44;;;;;;;2.90;1.30;;;;;;;13.48;100.00;101357.60;104708;1254;71466;-49
2023/10/30 07:32:11;;;;;;;4.80;1.90;;;;;;;13.48;100.00;101359.94;105039;1253;60534;-48
2023/10/30 07:34:40;;;;;;;1.70;1.40;;;;;;;13.49;100.00;101360.45;104702;1254;60473;-49
2023/10/30 07:37:08;;;;;;;2.70;1.40;;;;;;;13.51;100.00;101371.23;106582;1257;71325;-48
2023/10/30 07:39:35;;;;;;;3.90;1.80;;;;;;;13.52;100.00;101376.77;106449;1257;67548;-49
2023/10/30 07:42:03;;;;;;;3.20;1.70;;;;;;;13.54;100.00;101377.94;104690;1254;73381;-50
2023/10/30 07:44:31;;;;;;;8.40;1.80;;;;;;;13.57;100.00;101376.23;104763;1254;61804;-50
2023/10/30 07:46:59;;;;;;;4.80;1.90;;;;;;;13.59;100.00;101378.49;104672;1259;60540;-50
2023/10/30 07:49:26;;;;;;;3.60;1.40;;;;;;;13.63;100.00;101387.36;104876;1254;73813;-50
2023/10/30 07:51:53;;;;;;;9.60;3.00;;;;;;;13.69;100.00;101386.65;104608;1254;68441;-51
2023/10/30 07:54:22;;;;;;;5.20;2.90;;;;;;;13.74;100.00;101395.30;104872;1257;72796;-51
2023/10/30 07:56:49;;;;;;;2.90;2.00;;;;;;;13.79;100.00;101399.45;104429;1254;61220;-51
2023/10/30 07:59:17;;;;;;;4.70;1.50;;;;;;;13.84;100.00;101404.69;104599;1257;60541;-50
2023/10/30 08:01:45;;;;;;;6.10;1.50;;;;;;;13.89;100.00;101413.33;104779;1256;73789;-49
2023/10/30 08:04:13;;;;;;;2.10;1.10;;;;;;;13.94;100.00;101424.35;107006;1254;66832;-51
2023/10/30 08:06:40;;;;;;;3.10;1.00;;;;;;;13.98;100.00;101431.05;104865;1255;71430;-50
2023/10/30 08:09:08;;;;;;;2.00;0.90;;;;;;;14.02;100.00;101438.51;105155;1257;60648;-50
2023/10/30 08:11:36;;;;;;;5.80;1.40;;;;;;;14.06;100.00;101443.05;108897;1253;60201;-52
2023/10/30 08:14:03;;;;;;;3.10;1.10;;;;;;;14.09;100.00;101447.64;108759;1254;73341;-51
2023/10/30 08:16:32;;;;;;;1.50;0.80;;;;;;;14.12;100.00;101452.58;109056;1253;65829;-52
2023/10/30 08:19:00;;;;;;;1.90;0.90;;;;;;;14.16;100.00;101455.86;108959;1252;70493;-51
2023/10/30 08:21:27;;;;;;;3.50;1.10;;;;;;;14.20;100.00;101459.33;108886;1254;60131;-51
2023/10/30 08:23:54;;;;;;;6.20;1.00;;;;;;;14.24;100.00;101461.36;109064;1253;58980;-51
2023/10/30 08:26:22;;;;;;;7.40;1.10;;;;;;;14.27;100.00;101466.27;108927;1254;74471;-51
2023/10/30 08:28:50;;;;;;;7.40;1.40;;;;;;;14.31;100.00;101471.55;108947;1256;66399;-50
2023/10/30 08:31:18;;;;;;;4.00;1.20;;;;;;;14.35;100.00;101474.51;108953;1254;71490;-50
2023/10/30 08:33:45;;;;;;;3.90;1.00;;;;;;;14.38;100.00;101483.95;108980;1254;59175;-51
2023/10/30 08:36:20;;;;;;;2.10;1.00;;;;;;;14.42;100.00;101486.38;109089;1254;58794;-50
2023/10/30 08:38:47;;;;;;;;;;;;;;;14.45;100.00;101498.02;109011;1253;73899;-52
2023/10/30 08:41:15;;;;;;;2.20;1.00;;;;;;;14.48;100.00;101493.55;108915;1253;67033;-52
2023/10/30 08:43:42;;;;;;;3.80;1.40;;;;;;;14.52;100.00;101498.65;109079;1253;72795;-51
2023/10/30 08:46:16;;;;;;;3.30;1.10;;;;;;;14.56;100.00;101499.40;108954;1254;59313;-52
2023/10/30 08:48:43;;;;;;;2.70;1.10;;;;;;;14.60;100.00;101512.10;108996;1253;60505;-51
2023/10/30 08:51:11;;;;;;;1.70;0.90;;;;;;;14.63;100.00;101509.62;108986;1253;74205;-52
2023/10/30 08:53:39;;;;;;;2.80;1.30;;;;;;;14.68;100.00;101513.95;108926;1253;65712;-51
2023/10/30 08:56:07;;;;;;;3.10;1.40;;;;;;;14.73;100.00;101519.33;107160;1254;75124;-50
2023/10/30 08:58:34;;;;;;;4.20;1.10;;;;;;;14.79;100.00;101525.63;104782;1259;60565;-49
2023/10/30 09:01:02;;;;;;;3.30;1.10;;;;;;;14.85;100.00;101527.59;104724;1257;60508;-50
2023/10/30 09:03:30;;;;;;;4.80;1.10;;;;;;;14.90;100.00;101538.40;104765;1258;73909;-51
2023/10/30 09:05:57;;;;;;;1.90;0.90;;;;;;;14.94;100.00;101540.23;107153;1254;65751;-50
2023/10/30 09:08:25;;;;;;;2.50;0.90;;;;;;;14.98;100.00;101541.69;104871;1254;71471;-49
2023/10/30 09:10:52;;;;;;;4.00;0.90;;;;;;;15.01;100.00;101548.28;104694;1253;60556;-51
2023/10/30 09:13:19;;;;;;;1.40;1.00;;;;;;;15.06;100.00;101553.52;104716;1254;61724;-50
2023/10/30 09:15:47;;;;;;;2.60;1.20;;;;;;;15.10;100.00;101560.77;104897;1257;73941;-49
2023/10/30 09:18:14;;;;;;;5.10;0.90;;;;;;;15.14;100.00;101565.85;105638;1254;67079;-51
2023/10/30 09:20:42;;;;;;;1.50;0.80;;;;;;;15.20;100.00;101571.06;104934;1256;71760;-49
2023/10/30 09:23:09;;;;;;;3.30;1.10;;;;;;;15.28;100.00;101573.13;104720;1258;60616;-50
2023/10/30 09:25:36;;;;;;;2.30;0.90;;;;;;;15.36;100.00;101585.27;104653;1254;60495;-50
2023/10/30 09:28:04;;;;;;;2.60;1.00;;;;;;;15.45;100.00;101594.88;104713;1254;73891;-50
2023/10/30 09:30:31;;;;;;;2.10;1.10;;;;;;;15.51;100.00;101599.68;105971;1253;65942;-50
2023/10/30 09:32:59;;;;;;;4.00;0.90;;;;;;;15.57;100.00;101609.11;104737;1254;72741;-49
2023/10/30 09:35:29;;;;;;;5.20;0.80;;;;;;;15.60;100.00;101610.95;104676;1254;60586;-50
2023/10/30 09:37:56;;;;;;;2.70;1.20;;;;;;;15.63;100.00;101619.16;106215;1253;60603;-51
2023/10/30 09:40:27;;;;;;;4.10;1.10;;;;;;;15.66;100.00;101622.27;105353;1259;74300;-51
2023/10/30 09:42:54;;;;;;;4.10;1.00;;;;;;;15.70;100.00;101630.98;104588;1256;66944;-48
2023/10/30 09:45:23;;;;;;;4.00;1.00;;;;;;;15.76;100.00;101630.04;105481;1254;72766;-49
2023/10/30 09:47:55;;;;;;;5.60;1.20;;;;;;;15.84;100.00;101636.05;105090;1256;60558;-50
2023/10/30 09:50:24;;;;;;;3.00;0.90;;;;;;;15.94;100.00;101647.77;104990;1257;60345;-49
2023/10/30 09:52:53;;;;;;;2.30;0.90;;;;;;;16.05;100.00;101652.02;105148;1259;74303;-51
2023/10/30 09:55:22;;;;;;;2.60;0.90;;;;;;;16.15;100.00;101662.11;104728;1254;68098;-50
2023/10/30 09:57:54;;;;;;;3.30;1.10;;;;;;;16.24;100.00;101675.13;104618;1254;71495;-50
2023/10/30 10:00:21;;;;;;;4.80;1.80;;;;;;;16.35;100.00;101686.64;104840;1257;61603;-51
2023/10/30 10:02:49;;;;;;;2.90;2.00;;;;;;;16.44;100.00;101691.70;105190;1259;60462;-50
2023/10/30 10:05:18;;;;;;;5.60;3.10;;;;;;;16.52;100.00;101703.70;105258;1254;72644;-49
2023/10/30 10:07:46;;;;;;;3.80;2.00;;;;;;;16.58;100.00;101722.27;106402;1254;66445;-50
2023/10/30 10:10:17;;;;;;;4.40;1.90;;;;;;;16.65;100.00;101725.29;105097;1254;71444;-50
2023/10/30 10:12:48;;;;;;;3.30;2.50;;;;;;;16.72;100.00;101744.20;104663;1254;60361;-50
2023/10/30 10:15:17;;;;;;;3.80;1.70;;;;;;;16.77;100.00;101754.67;105566;1254;60428;-50
2023/10/30 10:17:45;;;;;;;3.50;1.90;;;;;;;16.82;100.00;101757.02;104730;1258;72655;-48
2023/10/30 10:20:12;;;;;;;4.30;1.50;;;;;;;16.85;100.00;101761.74;105137;1254;66853;-49
2023/10/30 10:22:40;;;;;;;2.80;1.50;;;;;;;16.89;100.00;101765.39;104836;1254;72754;-50
2023/10/30 10:25:10;;;;;;;5.90;3.50;;;;;;;16.93;100.00;101772.49;104709;1257;60710;-51
2023/10/30 10:27:38;;;;;;;2.60;1.40;;;;;;;16.95;100.00;101784.16;104738;1255;60437;-52
2023/10/30 10:30:06;;;;;;;4.10;1.60;;;;;;;16.99;100.00;101784.38;104690;1254;72714;-51
2023/10/30 10:32:34;;;;;;;3.60;1.10;;;;;;;17.03;100.00;101788.38;105853;1254;67151;-52
2023/10/30 10:35:02;;;;;;;2.60;1.20;;;;;;;17.07;100.00;101793.48;105531;1255;71146;-50
2023/10/30 10:37:30;;;;;;;3.10;1.00;;;;;;;17.11;100.00;101793.27;105459;1254;60752;-51
2023/10/30 10:39:57;;;;;;;3.50;0.80;;;;;;;17.16;100.00;101803.80;104841;1254;60559;-51
2023/10/30 10:42:27;;;;;;;3.00;0.90;;;;;;;17.20;100.00;101804.85;104748;1254;72530;-50
2023/10/30 10:44:56;;;;;;;3.60;1.70;;;;;;;17.25;100.00;101819.20;104817;1254;68277;-51
2023/10/30 10:47:24;;;;;;;1.70;1.00;;;;;;;17.29;100.00;101822.98;104672;1254;71463;-49
2023/10/30 10:49:51;;;;;;;1.40;0.60;;;;;;;17.34;100.00;101828.02;104824;1256;60565;-52
2023/10/30 10:52:19;;;;;;;3.70;0.70;;;;;;;17.39;100.00;101839.23;104996;1254;60544;-51
2023/10/30 10:55:02;;;;;;;2.40;0.80;;;;;;;17.43;100.00;101843.98;105361;1254;72635;-49
2023/10/30 10:57:34;;;;;;;2.90;0.90;;;;;;;17.47;100.00;101857.25;106852;1257;68613;-51
2023/10/30 11:00:07;;;;;;;3.20;1.10;;;;;;;17.51;100.00;101852.71;105009;1254;71427;-51
2023/10/30 11:02:37;;;;;;;2.00;0.80;;;;;;;17.55;100.00;101860.88;107133;1254;60527;-50
2023/10/30 11:05:05;;;;;;;2.10;0.60;;;;;;;17.60;100.00;101867.36;105007;1259;60499;-51
2023/10/30 11:07:32;;;;;;;1.80;0.70;;;;;;;17.65;100.00;101867.36;106390;1254;74322;-51
2023/10/30 11:10:03;;;;;;;1.20;0.60;;;;;;;17.70;100.00;101871.14;105098;1254;65749;-50
2023/10/30 11:12:59;;;;;;;2.10;0.60;;;;;;;17.74;100.00;101878.73;109025;1254;72500;-52
2023/10/30 11:15:35;;;;;;;2.30;0.90;;;;;;;17.81;100.00;101906.63;109128;1254;58880;-51